TimeIST,TemperatureF,Dew PointF,Humidity,Sea Level PressureIn,VisibilityMPH,Wind Direction,Wind SpeedMPH,Gust SpeedMPH,PrecipitationIn,Events,Conditions,WindDirDegrees,DateUTC
12:00 AM,66.2,44.6,46,30.06,1.2,Calm,Calm,-,N/A,,Smoke,0,2012-11-16 18:30:00
1:00 AM,64.4,44.6,49,30.06,1.2,Calm,Calm,-,N/A,,Smoke,0,2012-11-16 19:30:00
2:00 AM,62.6,46.4,55,30.04,1.2,Calm,Calm,-,N/A,,Smoke,0,2012-11-16 20:30:00
2:30 AM,64,53,57,30.02,1,Calm,Calm,,,,Smoke,,2012-11-16 21:00:00
3:00 AM,62.6,46.4,55,30.04,1.2,Calm,Calm,-,N/A,,Smoke,0,2012-11-16 21:30:00
4:00 AM,59.0,48.2,67,29.98,1.2,Variable,1.2,-,N/A,,Smoke,0,2012-11-16 22:30:00
5:00 AM,59.0,48.2,67,30.04,1.2,Calm,Calm,-,N/A,,Smoke,0,2012-11-16 23:30:00
5:30 AM,59,50,64,30.03,1,Calm,Calm,,,,Smoke,,2012-11-17 00:00:00
6:00 AM,59.0,50.0,72,30.06,1.2,Calm,Calm,-,N/A,,Smoke,0,2012-11-17 00:30:00
8:00 AM,60.8,50.0,68,30.09,0.6,Calm,Calm,-,N/A,,Smoke,0,2012-11-17 02:30:00
8:30 AM,64,53,57,30.07,1,Calm,Calm,,,,Smoke,,2012-11-17 03:00:00
9:00 AM,69.8,50.0,49,30.12,0.6,Calm,Calm,-,N/A,,Smoke,0,2012-11-17 03:30:00
11:00 AM,77.0,50.0,39,30.12,1.0,Calm,Calm,-,N/A,,Smoke,0,2012-11-17 05:30:00
12:00 PM,78.8,46.4,32,30.09,1.2,Variable,3.5,-,N/A,,Smoke,0,2012-11-17 06:30:00
1:00 PM,80.6,42.8,26,30.04,1.2,WSW,5.8,-,N/A,,Smoke,250,2012-11-17 07:30:00
2:30 PM,82,40,13,29.93,1,NW,4.6,,,,Smoke,320,2012-11-17 09:00:00
3:00 PM,82.4,35.6,19,29.98,2.2,Variable,6.9,-,N/A,,Smoke,0,2012-11-17 09:30:00
4:00 PM,82.4,37.4,20,29.98,2.2,Variable,5.8,-,N/A,,Smoke,0,2012-11-17 10:30:00
5:00 PM,80.6,37.4,21,29.98,2.2,Calm,Calm,-,N/A,,Haze,0,2012-11-17 11:30:00
7:00 PM,71.6,42.8,35,30.01,1.2,NNE,4.6,-,N/A,,Smoke,20,2012-11-17 13:30:00
8:00 PM,69.8,42.8,38,30.01,1.2,Calm,Calm,-,N/A,,Smoke,0,2012-11-17 14:30:00
8:30 PM,70,46,31,29.96,1,Calm,Calm,,,,Smoke,,2012-11-17 15:00:00
9:00 PM,69.8,41.0,35,30.04,1.6,Calm,Calm,-,N/A,,Smoke,0,2012-11-17 15:30:00
10:00 PM,66.2,44.6,46,30.04,1.6,Calm,Calm,-,N/A,,Smoke,0,2012-11-17 16:30:00
11:00 PM,64.4,44.6,49,30.01,1.2,Calm,Calm,-,N/A,,Smoke,0,2012-11-17 17:30:00